Resurrection — WDE5499 — position and weather

sailwx.info

Track history (hours):
 
Tides and Currents Weather Stations Pressure Air Temp Water Temp Dewpoint Dewpoint Depression Visibility Wind Speed Wind Dir Waves Ship Positions

Resurrection

Owner: Marquette Transportation Company Gulf-Inland, LLC, Jefferson, LA. More information available from US FCC via Universal Licensing System and Coast Guard Vessel Documentation Center.

Last reported at 2017-Nov-17 23:59 UTC. Time now 2017-Nov-22 14:48 UTC.
Position N 29°33' W 090°28'.

Length 203 m; draft 2.8 m.

Type: . MMSI: 367367620.

Date/timePositionNaut miles runAvg speedWind from/ knotsBaromVisibWave heightAir tempDewpointWater temp
2017-Nov-17 23:59N 29°33' W 090°28'2 4.2
2017-Nov-17 23:30N 29°34' W 090°30'2 4.3
2017-Nov-17 23:00N 29°34' W 090°33'2 4.1
2017-Nov-17 22:30N 29°34' W 090°35'2 3.8
2017-Nov-17 22:00N 29°35' W 090°37'2 3.9
2017-Nov-17 21:30N 29°36' W 090°39'2 3.8
2017-Nov-17 21:00N 29°36' W 090°41'1 2.7
2017-Nov-17 20:30N 29°36' W 090°43'2 3.5
2017-Nov-17 20:00N 29°34' W 090°43'2 3.6
2017-Nov-17 19:30N 29°34' W 090°45'0 1.0
2017-Nov-17 19:00N 29°33' W 090°45'0 0.0
2017-Nov-17 18:30N 29°33' W 090°45'0 0.0
2017-Nov-17 18:00N 29°33' W 090°45'0 0.0
2017-Nov-17 17:30N 29°33' W 090°45'0 0.1
2017-Nov-17 17:00N 29°33' W 090°45'0 0.4
2017-Nov-17 16:30N 29°33' W 090°45'2 3.6
2017-Nov-17 16:00N 29°32' W 090°47'3 5.0
2017-Nov-17 15:30N 29°32' W 090°50'2 4.7
2017-Nov-17 15:00N 29°32' W 090°53'2 4.9
2017-Nov-17 14:29N 29°34' W 090°55'38 3.2
2017-Nov-17 02:49N 29°46' W 091°36'4 4.0
2017-Nov-17 01:43N 29°46' W 091°41'1 4.2
2017-Nov-17 01:27N 29°46' W 091°43'10 3.3
2017-Nov-16 22:19N 29°51' W 091°53'1 3.8
2017-Nov-16 22:00N 29°51' W 091°55'2 3.8
2017-Nov-16 21:30N 29°51' W 091°57'2 4.0
2017-Nov-16 21:00N 29°50' W 091°59'2 4.0
2017-Nov-16 20:30N 29°49' W 092°01'2 3.9
2017-Nov-16 20:00N 29°49' W 092°03'2 3.9
2017-Nov-16 19:30N 29°48' W 092°05'2 4.0
2017-Nov-16 19:00N 29°47' W 092°07'2 4.1
2017-Nov-16 18:30N 29°47' W 092°10'2 3.2
2017-Nov-16 18:00N 29°47' W 092°12'0 0.8
2017-Nov-16 17:30N 29°47' W 092°11'0 0.6
2017-Nov-16 17:00N 29°47' W 092°11'0 0.0
2017-Nov-16 16:30N 29°47' W 092°11'1 1.4
2017-Nov-16 16:00N 29°47' W 092°12'0 0.5
2017-Nov-16 15:30N 29°47' W 092°12'1 1.3
2017-Nov-16 15:00N 29°47' W 092°13'1 1.5
2017-Nov-16 14:30N 29°48' W 092°13'1 2.6
2017-Nov-16 14:00N 29°48' W 092°15'2 3.2
2017-Nov-16 13:30N 29°49' W 092°16'0 0.3
2017-Nov-16 13:00N 29°49' W 092°17'0 0.0
2017-Nov-16 12:30N 29°49' W 092°17'0 0.0
2017-Nov-16 12:00N 29°49' W 092°17'0 0.0
2017-Nov-16 11:30N 29°49' W 092°17'0 0.0
2017-Nov-16 11:00N 29°49' W 092°17'0 0.0
2017-Nov-16 10:30N 29°49' W 092°17'0 0.0
2017-Nov-16 10:00N 29°49' W 092°17'0 0.0
2017-Nov-16 09:30N 29°49' W 092°17'0 0.0
2017-Nov-16 09:00N 29°49' W 092°17'0 0.0
2017-Nov-16 08:30N 29°49' W 092°17'0 0.1
2017-Nov-16 08:00N 29°49' W 092°17'0 0.0
2017-Nov-16 07:30N 29°49' W 092°17'0 0.0
2017-Nov-16 07:00N 29°49' W 092°17'0 0.0
2017-Nov-16 06:30N 29°49' W 092°17'0 0.0
2017-Nov-16 06:00N 29°49' W 092°17'0 0.0
2017-Nov-16 05:30N 29°49' W 092°17'1 1.8
2017-Nov-16 05:00N 29°49' W 092°17'2 3.2
2017-Nov-16 04:30N 29°50' W 092°19'2 3.5
2017-Nov-16 04:00N 29°51' W 092°21'2 3.1
2017-Nov-16 03:25N 29°52' W 092°22'2 3.4
2017-Nov-16 02:57N 29°53' W 092°24'31 2.6
2017-Nov-15 15:10N 29°56' W 092°59'2 3.8
2017-Nov-15 14:31N 29°56' W 093°02'0 3.8
2017-Nov-15 14:30N 29°56' W 093°02'2 3.8
2017-Nov-15 14:00N 29°56' W 093°04'2 3.6
2017-Nov-15 13:30N 29°56' W 093°06'1 2.9
2017-Nov-15 13:00N 29°56' W 093°08'2 3.4
2017-Nov-15 12:24N 29°57' W 093°10'1 3.8
2017-Nov-15 12:00N 29°58' W 093°11'2 3.8
2017-Nov-15 11:29N 29°59' W 093°13'2 3.4
2017-Nov-15 11:00N 30°01' W 093°14'2 3.1
2017-Nov-15 10:30N 30°02' W 093°15'1 1.3
2017-Nov-15 10:00N 30°02' W 093°16'1 2.9
2017-Nov-15 09:30N 30°04' W 093°16'2 3.8
2017-Nov-15 09:00N 30°05' W 093°17'0 1.0
2017-Nov-15 08:30N 30°05' W 093°18'1 1.4
2017-Nov-15 08:00N 30°06' W 093°18'0 0.2
2017-Nov-15 07:30N 30°06' W 093°18'0 0.0
2017-Nov-15 07:00N 30°06' W 093°18'0 0.0
2017-Nov-15 06:30N 30°06' W 093°18'0 0.1
2017-Nov-15 06:00N 30°06' W 093°18'0 0.2
2017-Nov-15 05:30N 30°06' W 093°18'1 1.0
2017-Nov-15 05:00N 30°06' W 093°19'0 0.1
2017-Nov-15 04:30N 30°06' W 093°19'0 0.1
2017-Nov-15 04:00N 30°06' W 093°19'0 0.0
2017-Nov-15 03:30N 30°06' W 093°19'1 2.3
2017-Nov-15 03:00N 30°05' W 093°20'2 3.8
2017-Nov-15 02:30N 30°04' W 093°21'2 3.5
2017-Nov-15 02:00N 30°04' W 093°23'0 0.2
2017-Nov-15 01:30N 30°04' W 093°23'1 2.1
2017-Nov-15 01:00N 30°04' W 093°25'2 4.0
2017-Nov-15 00:30N 30°04' W 093°27'2 3.8
2017-Nov-15 00:00N 30°04' W 093°29'2 4.1
2017-Nov-14 23:30N 30°04' W 093°31'2 4.0
2017-Nov-14 23:00N 30°04' W 093°34'2 4.1
2017-Nov-14 22:30N 30°04' W 093°36'  
2017-Nov-12 04:03N 29°04' W 095°13'0 3.6
2017-Nov-12 04:00N 29°04' W 095°13'118 3.3
2017-Nov-10 16:30N 30°04' W 093°16'0 0.5
2017-Nov-10 16:00N 30°04' W 093°16'1 1.2
2017-Nov-10 15:30N 30°04' W 093°16'0 0.1
2017-Nov-10 15:00N 30°04' W 093°16'0 0.0
2017-Nov-10 14:30N 30°04' W 093°16'0 0.4
2017-Nov-10 14:00N 30°03' W 093°16'2 3.2
2017-Nov-10 13:30N 30°02' W 093°15'2 3.2
2017-Nov-10 13:00N 30°01' W 093°14'2 3.1
2017-Nov-10 12:30N 29°59' W 093°13'2 3.5
2017-Nov-10 12:00N 29°58' W 093°11'1 2.2
2017-Nov-10 11:30N 29°57' W 093°11'2 3.6
2017-Nov-10 11:00N 29°56' W 093°09'2 3.3
2017-Nov-10 10:30N 29°56' W 093°07'40 3.1
2017-Nov-09 21:28N 29°51' W 092°22'1 2.8
2017-Nov-09 21:00N 29°51' W 092°20'1 1.1
2017-Nov-09 20:30N 29°51' W 092°20'1 1.9
2017-Nov-09 20:00N 29°50' W 092°19'1 2.5
2017-Nov-09 19:30N 29°49' W 092°18'1 2.5
2017-Nov-09 19:00N 29°49' W 092°16'1 2.9
2017-Nov-09 18:30N 29°48' W 092°15'2 3.1
2017-Nov-09 18:00N 29°48' W 092°13'1 2.5
2017-Nov-09 17:30N 29°47' W 092°12'1 2.4
2017-Nov-09 17:01N 29°47' W 092°11'1 2.8
2017-Nov-09 16:31N 29°47' W 092°09'2 3.7
2017-Nov-09 16:01N 29°47' W 092°07'2 3.7
2017-Nov-09 15:31N 29°48' W 092°05'2 3.5
2017-Nov-09 15:00N 29°49' W 092°03'2 3.5
2017-Nov-09 14:30N 29°49' W 092°01'2 3.0
2017-Nov-09 14:00N 29°50' W 091°60'1 2.7
2017-Nov-09 13:30N 29°50' W 091°58'3 3.4
2017-Nov-09 12:38N 29°51' W 091°55'  
Track history (hours):
 
Tides and Currents Weather Stations Pressure Air Temp Water Temp Dewpoint Dewpoint Depression Visibility Wind Speed Wind Dir Waves Ship Positions

Resurrection

Owner: Marquette Transportation Company Gulf-Inland, LLC, Jefferson, LA. More information available from US FCC via Universal Licensing System and Coast Guard Vessel Documentation Center.

Last reported at 2017-Nov-17 23:59 UTC. Time now 2017-Nov-22 14:48 UTC.
Position N 29°33' W 090°28'.

Length 203 m; draft 2.8 m.

Type: . MMSI: 367367620.

Date/timePositionNaut miles runAvg speedWind from/ knotsBaromVisibWave heightAir tempDewpointWater temp
2017-Nov-17 23:59N 29°33' W 090°28'2 4.2
2017-Nov-17 23:30N 29°34' W 090°30'2 4.3
2017-Nov-17 23:00N 29°34' W 090°33'2 4.1
2017-Nov-17 22:30N 29°34' W 090°35'2 3.8
2017-Nov-17 22:00N 29°35' W 090°37'2 3.9
2017-Nov-17 21:30N 29°36' W 090°39'2 3.8
2017-Nov-17 21:00N 29°36' W 090°41'1 2.7
2017-Nov-17 20:30N 29°36' W 090°43'2 3.5
2017-Nov-17 20:00N 29°34' W 090°43'2 3.6
2017-Nov-17 19:30N 29°34' W 090°45'0 1.0
2017-Nov-17 19:00N 29°33' W 090°45'0 0.0
2017-Nov-17 18:30N 29°33' W 090°45'0 0.0
2017-Nov-17 18:00N 29°33' W 090°45'0 0.0
2017-Nov-17 17:30N 29°33' W 090°45'0 0.1
2017-Nov-17 17:00N 29°33' W 090°45'0 0.4
2017-Nov-17 16:30N 29°33' W 090°45'2 3.6
2017-Nov-17 16:00N 29°32' W 090°47'3 5.0
2017-Nov-17 15:30N 29°32' W 090°50'2 4.7
2017-Nov-17 15:00N 29°32' W 090°53'2 4.9
2017-Nov-17 14:29N 29°34' W 090°55'38 3.2
2017-Nov-17 02:49N 29°46' W 091°36'4 4.0
2017-Nov-17 01:43N 29°46' W 091°41'1 4.2
2017-Nov-17 01:27N 29°46' W 091°43'10 3.3
2017-Nov-16 22:19N 29°51' W 091°53'1 3.8
2017-Nov-16 22:00N 29°51' W 091°55'2 3.8
2017-Nov-16 21:30N 29°51' W 091°57'2 4.0
2017-Nov-16 21:00N 29°50' W 091°59'2 4.0
2017-Nov-16 20:30N 29°49' W 092°01'2 3.9
2017-Nov-16 20:00N 29°49' W 092°03'2 3.9
2017-Nov-16 19:30N 29°48' W 092°05'2 4.0
2017-Nov-16 19:00N 29°47' W 092°07'2 4.1
2017-Nov-16 18:30N 29°47' W 092°10'2 3.2
2017-Nov-16 18:00N 29°47' W 092°12'0 0.8
2017-Nov-16 17:30N 29°47' W 092°11'0 0.6
2017-Nov-16 17:00N 29°47' W 092°11'0 0.0
2017-Nov-16 16:30N 29°47' W 092°11'1 1.4
2017-Nov-16 16:00N 29°47' W 092°12'0 0.5
2017-Nov-16 15:30N 29°47' W 092°12'1 1.3
2017-Nov-16 15:00N 29°47' W 092°13'1 1.5
2017-Nov-16 14:30N 29°48' W 092°13'1 2.6
2017-Nov-16 14:00N 29°48' W 092°15'2 3.2
2017-Nov-16 13:30N 29°49' W 092°16'0 0.3
2017-Nov-16 13:00N 29°49' W 092°17'0 0.0
2017-Nov-16 12:30N 29°49' W 092°17'0 0.0
2017-Nov-16 12:00N 29°49' W 092°17'0 0.0
2017-Nov-16 11:30N 29°49' W 092°17'0 0.0
2017-Nov-16 11:00N 29°49' W 092°17'0 0.0
2017-Nov-16 10:30N 29°49' W 092°17'0 0.0
2017-Nov-16 10:00N 29°49' W 092°17'0 0.0
2017-Nov-16 09:30N 29°49' W 092°17'0 0.0
2017-Nov-16 09:00N 29°49' W 092°17'0 0.0
2017-Nov-16 08:30N 29°49' W 092°17'0 0.1
2017-Nov-16 08:00N 29°49' W 092°17'0 0.0
2017-Nov-16 07:30N 29°49' W 092°17'0 0.0
2017-Nov-16 07:00N 29°49' W 092°17'0 0.0
2017-Nov-16 06:30N 29°49' W 092°17'0 0.0
2017-Nov-16 06:00N 29°49' W 092°17'0 0.0
2017-Nov-16 05:30N 29°49' W 092°17'1 1.8
2017-Nov-16 05:00N 29°49' W 092°17'2 3.2
2017-Nov-16 04:30N 29°50' W 092°19'2 3.5
2017-Nov-16 04:00N 29°51' W 092°21'2 3.1
2017-Nov-16 03:25N 29°52' W 092°22'2 3.4
2017-Nov-16 02:57N 29°53' W 092°24'31 2.6
2017-Nov-15 15:10N 29°56' W 092°59'2 3.8
2017-Nov-15 14:31N 29°56' W 093°02'0 3.8
2017-Nov-15 14:30N 29°56' W 093°02'2 3.8
2017-Nov-15 14:00N 29°56' W 093°04'2 3.6
2017-Nov-15 13:30N 29°56' W 093°06'1 2.9
2017-Nov-15 13:00N 29°56' W 093°08'2 3.4
2017-Nov-15 12:24N 29°57' W 093°10'1 3.8
2017-Nov-15 12:00N 29°58' W 093°11'2 3.8
2017-Nov-15 11:29N 29°59' W 093°13'2 3.4
2017-Nov-15 11:00N 30°01' W 093°14'2 3.1
2017-Nov-15 10:30N 30°02' W 093°15'1 1.3
2017-Nov-15 10:00N 30°02' W 093°16'1 2.9
2017-Nov-15 09:30N 30°04' W 093°16'2 3.8
2017-Nov-15 09:00N 30°05' W 093°17'0 1.0
2017-Nov-15 08:30N 30°05' W 093°18'1 1.4
2017-Nov-15 08:00N 30°06' W 093°18'0 0.2
2017-Nov-15 07:30N 30°06' W 093°18'0 0.0
2017-Nov-15 07:00N 30°06' W 093°18'0 0.0
2017-Nov-15 06:30N 30°06' W 093°18'0 0.1
2017-Nov-15 06:00N 30°06' W 093°18'0 0.2
2017-Nov-15 05:30N 30°06' W 093°18'1 1.0
2017-Nov-15 05:00N 30°06' W 093°19'0 0.1
2017-Nov-15 04:30N 30°06' W 093°19'0 0.1
2017-Nov-15 04:00N 30°06' W 093°19'0 0.0
2017-Nov-15 03:30N 30°06' W 093°19'1 2.3
2017-Nov-15 03:00N 30°05' W 093°20'2 3.8
2017-Nov-15 02:30N 30°04' W 093°21'2 3.5
2017-Nov-15 02:00N 30°04' W 093°23'0 0.2
2017-Nov-15 01:30N 30°04' W 093°23'1 2.1
2017-Nov-15 01:00N 30°04' W 093°25'2 4.0
2017-Nov-15 00:30N 30°04' W 093°27'2 3.8
2017-Nov-15 00:00N 30°04' W 093°29'2 4.1
2017-Nov-14 23:30N 30°04' W 093°31'2 4.0
2017-Nov-14 23:00N 30°04' W 093°34'2 4.1
2017-Nov-14 22:30N 30°04' W 093°36'  
2017-Nov-12 04:03N 29°04' W 095°13'0 3.6
2017-Nov-12 04:00N 29°04' W 095°13'118 3.3
2017-Nov-10 16:30N 30°04' W 093°16'0 0.5
2017-Nov-10 16:00N 30°04' W 093°16'1 1.2
2017-Nov-10 15:30N 30°04' W 093°16'0 0.1
2017-Nov-10 15:00N 30°04' W 093°16'0 0.0
2017-Nov-10 14:30N 30°04' W 093°16'0 0.4
2017-Nov-10 14:00N 30°03' W 093°16'2 3.2
2017-Nov-10 13:30N 30°02' W 093°15'2 3.2
2017-Nov-10 13:00N 30°01' W 093°14'2 3.1
2017-Nov-10 12:30N 29°59' W 093°13'2 3.5
2017-Nov-10 12:00N 29°58' W 093°11'1 2.2
2017-Nov-10 11:30N 29°57' W 093°11'2 3.6
2017-Nov-10 11:00N 29°56' W 093°09'2 3.3
2017-Nov-10 10:30N 29°56' W 093°07'40 3.1
2017-Nov-09 21:28N 29°51' W 092°22'1 2.8
2017-Nov-09 21:00N 29°51' W 092°20'1 1.1
2017-Nov-09 20:30N 29°51' W 092°20'1 1.9
2017-Nov-09 20:00N 29°50' W 092°19'1 2.5
2017-Nov-09 19:30N 29°49' W 092°18'1 2.5
2017-Nov-09 19:00N 29°49' W 092°16'1 2.9
2017-Nov-09 18:30N 29°48' W 092°15'2 3.1
2017-Nov-09 18:00N 29°48' W 092°13'1 2.5
2017-Nov-09 17:30N 29°47' W 092°12'1 2.4
2017-Nov-09 17:01N 29°47' W 092°11'1 2.8
2017-Nov-09 16:31N 29°47' W 092°09'2 3.7
2017-Nov-09 16:01N 29°47' W 092°07'2 3.7
2017-Nov-09 15:31N 29°48' W 092°05'2 3.5
2017-Nov-09 15:00N 29°49' W 092°03'2 3.5
2017-Nov-09 14:30N 29°49' W 092°01'2 3.0
2017-Nov-09 14:00N 29°50' W 091°60'1 2.7
2017-Nov-09 13:30N 29°50' W 091°58'3 3.4
2017-Nov-09 12:38N 29°51' W 091°55'  

Dump ship's entire track history